Time;durP1;ratioP1;P1;durP2;ratioP2;P2;SDS_P1;SDS_P2;PMS_P1;PMS_P2;Temp;Humidity;BMP_temperature;BMP_pressure;BME280_temperature;BME280_humidity;BME280_pressure;Samples;Min_cycle;Max_cycle;Signal;HPM_P1;HPM_P2
2023/02/11 00:02:31;;;;;;;27.83;22.90;;;2.40;32.70;;;;;;10442662;28;20584;-73
2023/02/11 00:07:35;;;;;;;26.57;20.77;;;2.40;33.00;;;;;;10435704;28;20306;-73
2023/02/11 00:12:38;;;;;;;35.07;24.27;;;2.30;32.80;;;;;;10435818;28;20716;-73
2023/02/11 00:17:43;;;;;;;36.37;25.40;;;2.30;32.90;;;;;;10441306;28;20653;-73
2023/02/11 00:22:46;;;;;;;35.77;24.13;;;2.20;32.90;;;;;;10436885;28;20248;-74
2023/02/11 00:27:49;;;;;;;38.07;26.20;;;2.20;32.80;;;;;;10437945;28;20233;-74
2023/02/11 00:32:54;;;;;;;35.40;25.70;;;2.20;32.80;;;;;;10438438;28;20871;-74
2023/02/11 00:37:57;;;;;;;33.20;24.10;;;2.20;32.90;;;;;;10440288;28;20239;-73
2023/02/11 00:43:00;;;;;;;29.60;20.80;;;2.10;32.70;;;;;;10442753;28;20693;-74
2023/02/11 00:48:05;;;;;;;24.63;19.03;;;2.20;33.00;;;;;;10437300;28;20601;-73
2023/02/11 00:53:08;;;;;;;42.47;27.13;;;2.10;32.90;;;;;;10431800;28;20616;-71
2023/02/11 00:58:11;;;;;;;29.77;21.43;;;2.00;32.60;;;;;;10444235;28;20615;-73
2023/02/11 01:03:15;;;;;;;27.07;20.20;;;2.10;32.70;;;;;;10438588;28;20228;-69
2023/02/11 01:08:19;;;;;;;26.10;20.03;;;1.90;32.50;;;;;;10437808;28;20231;-73
2023/02/11 01:13:23;;;;;;;22.10;18.07;;;1.80;32.50;;;;;;10437738;28;20612;-71
2023/02/11 01:18:27;;;;;;;31.70;21.17;;;1.70;32.70;;;;;;10441498;28;20236;-75
2023/02/11 01:23:30;;;;;;;26.30;21.40;;;1.60;32.70;;;;;;10433366;28;20723;-74
2023/02/11 01:28:34;;;;;;;22.37;17.60;;;1.60;32.80;;;;;;10445133;28;20946;-73
2023/02/11 01:33:38;;;;;;;27.67;21.43;;;1.60;32.90;;;;;;10439304;28;20229;-73
2023/02/11 01:38:43;;;;;;;26.50;20.60;;;1.60;33.00;;;;;;10433037;28;20229;-75
2023/02/11 01:43:49;;;;;;;23.77;17.90;;;1.50;32.90;;;;;;10433006;28;20377;-75
2023/02/11 01:48:57;;;;;;;24.40;19.93;;;1.40;33.20;;;;;;10442850;28;20232;-76
2023/02/11 01:59:27;;;;;;;26.23;20.60;;;1.40;33.20;;;;;;10439424;28;20699;-73
2023/02/11 02:04:44;;;;;;;23.67;18.17;;;1.40;33.30;;;;;;10443061;28;20264;-73
2023/02/11 02:09:57;;;;;;;29.23;20.97;;;1.30;33.80;;;;;;10456602;28;20316;-73
2023/02/11 02:15:26;;;;;;;22.73;17.90;;;1.30;33.80;;;;;;10446805;28;20228;-76
2023/02/11 02:21:05;;;;;;;25.83;18.97;;;1.30;33.70;;;;;;10439817;28;20237;-76
2023/02/11 02:26:53;;;;;;;23.43;17.53;;;1.20;33.70;;;;;;10422792;28;20224;-75
2023/02/11 02:32:22;;;;;;;24.77;18.33;;;1.20;34.40;;;;;;10438599;28;20263;-75
2023/02/11 02:37:31;;;;;;;27.20;18.97;;;1.20;33.70;;;;;;10438735;28;20239;-75
2023/02/11 02:42:35;;;;;;;25.23;18.97;;;1.20;33.70;;;;;;10442188;28;20225;-77
2023/02/11 02:47:39;;;;;;;26.37;19.40;;;1.10;33.60;;;;;;10450828;28;20233;-75
2023/02/11 02:52:48;;;;;;;28.03;20.00;;;1.10;33.60;;;;;;10447477;28;20604;-75
2023/02/11 02:58:05;;;;;;;23.30;18.87;;;1.10;33.60;;;;;;10444897;28;20239;-71
2023/02/11 03:03:23;;;;;;;25.33;19.47;;;1.10;33.60;;;;;;10444256;28;20243;-71
2023/02/11 03:08:33;;;;;;;27.10;19.20;;;1.00;33.80;;;;;;10442495;28;20320;-73
2023/02/11 03:13:37;;;;;;;24.17;18.83;;;1.00;33.60;;;;;;10440853;28;20244;-75
2023/02/11 03:18:47;;;;;;;24.27;18.37;;;1.00;33.50;;;;;;10435574;28;20226;-73
2023/02/11 03:23:54;;;;;;;25.97;19.27;;;1.10;34.00;;;;;;10440404;28;20249;-75
2023/02/11 03:29:03;;;;;;;24.53;18.77;;;1.00;33.90;;;;;;10443295;28;20311;-75
2023/02/11 03:34:13;;;;;;;21.37;17.23;;;1.00;33.90;;;;;;10436174;28;20673;-72
2023/02/11 03:39:22;;;;;;;28.00;19.10;;;1.00;33.90;;;;;;10437698;28;20295;-71
2023/02/11 03:44:31;;;;;;;26.00;19.43;;;1.20;34.00;;;;;;10443877;28;20606;-73
2023/02/11 03:49:38;;;;;;;26.00;18.90;;;1.00;33.70;;;;;;10437134;28;20253;-69
2023/02/11 03:54:43;;;;;;;25.10;18.73;;;1.10;33.60;;;;;;10443220;28;20233;-73
2023/02/11 03:59:51;;;;;;;22.70;17.87;;;1.10;33.60;;;;;;10435941;28;20225;-74
2023/02/11 04:04:56;;;;;;;22.23;18.73;;;1.10;33.90;;;;;;10441102;28;20717;-71
2023/02/11 04:09:59;;;;;;;25.87;19.63;;;1.20;33.80;;;;;;10439691;28;20233;-70
2023/02/11 04:15:03;;;;;;;25.67;19.73;;;1.20;33.70;;;;;;10444364;28;20302;-73
2023/02/11 04:20:08;;;;;;;27.03;19.63;;;1.20;33.70;;;;;;10440658;28;20284;-73
2023/02/11 04:25:11;;;;;;;25.90;19.73;;;1.10;33.60;;;;;;10455766;28;20232;-71
2023/02/11 04:30:15;;;;;;;25.53;19.73;;;1.10;33.70;;;;;;10439915;28;20232;-69
2023/02/11 04:35:19;;;;;;;24.33;19.10;;;1.00;34.00;;;;;;10442043;28;20218;-69
2023/02/11 04:40:23;;;;;;;24.10;19.23;;;1.10;34.60;;;;;;10439000;28;20582;-71
2023/02/11 04:45:26;;;;;;;25.63;19.00;;;1.00;34.70;;;;;;10427782;28;20590;-73
2023/02/11 04:50:31;;;;;;;26.17;19.30;;;1.00;34.80;;;;;;10438857;28;20256;-73
2023/02/11 07:35:31;;;;;;;20.83;18.20;;;2.70;37.10;;;;;;10465936;28;20608;-72
2023/02/11 07:40:35;;;;;;;22.07;19.13;;;2.90;36.60;;;;;;10475601;28;20232;-71
2023/02/11 07:45:39;;;;;;;21.80;18.63;;;3.00;36.60;;;;;;10475476;28;20225;-71
2023/02/11 07:50:43;;;;;;;24.17;19.17;;;3.00;36.60;;;;;;10474294;28;20233;-72
2023/02/11 07:55:46;;;;;;;23.27;20.07;;;3.10;36.60;;;;;;10478444;28;20220;-71
2023/02/11 08:00:50;;;;;;;23.63;18.77;;;3.30;36.60;;;;;;10474400;28;20239;-71
2023/02/11 08:05:57;;;;;;;23.63;18.97;;;3.30;36.50;;;;;;10478387;28;20323;-71
2023/02/11 08:11:06;;;;;;;23.30;18.73;;;3.40;36.90;;;;;;10475098;28;20725;-71
2023/02/11 08:16:16;;;;;;;21.93;19.47;;;3.50;37.30;;;;;;10473305;28;20235;-72
2023/02/11 08:21:21;;;;;;;23.40;18.70;;;3.70;36.70;;;;;;10469798;28;20722;-71
2023/02/11 08:26:27;;;;;;;24.60;19.33;;;3.70;37.00;;;;;;10473156;28;20244;-71
2023/02/11 08:31:33;;;;;;;23.47;19.70;;;3.70;36.80;;;;;;10475852;28;20239;-71
2023/02/11 08:36:39;;;;;;;24.00;20.23;;;3.80;36.80;;;;;;10471296;28;20659;-71
2023/02/11 08:41:42;;;;;;;25.57;20.63;;;3.90;37.00;;;;;;10480087;28;20228;-71
2023/02/11 08:46:45;;;;;;;25.70;21.47;;;4.10;36.80;;;;;;10476143;28;20232;-72
2023/02/11 08:51:50;;;;;;;20.87;18.67;;;4.20;36.80;;;;;;10472243;28;20260;-71
2023/02/11 08:56:54;;;;;;;22.63;19.80;;;4.30;36.90;;;;;;10478587;28;20229;-71
2023/02/11 09:01:57;;;;;;;22.13;19.33;;;4.40;36.60;;;;;;10476597;28;20247;-71
2023/02/11 09:07:02;;;;;;;26.83;20.43;;;4.50;36.60;;;;;;10473681;28;20232;-72
2023/02/11 09:12:06;;;;;;;26.20;21.00;;;4.60;37.00;;;;;;10469102;28;20235;-71
2023/02/11 09:17:09;;;;;;;25.57;21.10;;;4.70;36.90;;;;;;10472440;28;20224;-72
2023/02/11 09:22:14;;;;;;;25.27;21.90;;;4.90;36.90;;;;;;10467301;28;20720;-73
2023/02/11 09:27:17;;;;;;;24.13;20.03;;;5.10;37.40;;;;;;10469573;28;20232;-74
2023/02/11 09:32:20;;;;;;;25.70;19.63;;;5.30;37.00;;;;;;10466586;28;20598;-73
2023/02/11 09:37:24;;;;;;;28.40;24.07;;;5.50;37.20;;;;;;10471303;28;20228;-72
2023/02/11 09:42:41;;;;;;;24.73;20.60;;;5.80;37.50;;;;;;10471614;28;20236;-74
2023/02/11 09:47:52;;;;;;;21.13;18.53;;;6.00;37.60;;;;;;10468486;28;20224;-74
2023/02/11 09:53:02;;;;;;;17.77;15.03;;;6.20;37.60;;;;;;10468159;28;20240;-74
2023/02/11 09:58:12;;;;;;;15.23;13.63;;;6.50;37.60;;;;;;10472457;28;20224;-74
2023/02/11 10:03:42;;;;;;;15.73;13.93;;;6.80;37.00;;;;;;10473187;28;20237;-75
2023/02/11 10:08:56;;;;;;;14.07;12.30;;;7.00;36.20;;;;;;10470579;28;20236;-74
2023/02/11 10:14:12;;;;;;;14.67;12.63;;;7.20;36.40;;;;;;10478173;28;20240;-75
2023/02/11 10:19:30;;;;;;;16.33;12.60;;;7.40;35.80;;;;;;10476467;28;20248;-75
2023/02/11 10:24:36;;;;;;;15.03;13.47;;;7.60;35.30;;;;;;10475242;28;20231;-74
2023/02/11 10:29:44;;;;;;;13.50;12.10;;;7.60;35.40;;;;;;10484110;28;20262;-74
2023/02/11 10:34:47;;;;;;;14.83;13.13;;;7.70;35.30;;;;;;10479099;28;20262;-74
2023/02/11 10:39:52;;;;;;;15.73;13.63;;;7.70;35.50;;;;;;10481483;28;20231;-75
2023/02/11 10:44:59;;;;;;;17.27;14.00;;;7.80;35.60;;;;;;10484142;28;20248;-74
2023/02/11 10:50:19;;;;;;;13.93;12.43;;;7.80;35.40;;;;;;10477701;28;20239;-74
2023/02/11 10:55:27;;;;;;;17.83;14.57;;;7.90;35.10;;;;;;10478737;28;20339;-74
2023/02/11 11:00:36;;;;;;;13.97;12.53;;;8.00;35.30;;;;;;10480153;28;20236;-74
2023/02/11 11:05:48;;;;;;;15.50;13.57;;;8.00;35.10;;;;;;10475097;28;20599;-74
2023/02/11 11:11:05;;;;;;;16.30;14.20;;;8.10;34.90;;;;;;10475947;28;20229;-74
2023/02/11 11:16:24;;;;;;;15.40;13.77;;;8.20;34.80;;;;;;10480203;28;20220;-74
2023/02/11 11:21:33;;;;;;;16.10;13.67;;;8.20;34.50;;;;;;10479889;28;20313;-74
2023/02/11 11:26:44;;;;;;;15.47;13.73;;;8.20;34.80;;;;;;10478490;28;20235;-74
2023/02/11 11:31:51;;;;;;;14.63;13.03;;;8.30;34.90;;;;;;10480303;28;20231;-74
2023/02/11 11:36:55;;;;;;;15.70;14.03;;;8.30;35.10;;;;;;10482696;28;20645;-74
2023/02/11 11:42:02;;;;;;;13.93;12.53;;;8.40;35.00;;;;;;10479960;28;20715;-74
2023/02/11 11:47:25;;;;;;;15.23;13.20;;;8.50;34.80;;;;;;10475033;28;20237;-74
2023/02/11 11:52:39;;;;;;;12.83;11.30;;;8.60;35.00;;;;;;10471646;28;20236;-74
2023/02/11 11:57:44;;;;;;;12.97;11.63;;;8.70;35.10;;;;;;10477052;28;20232;-75
2023/02/11 12:03:10;;;;;;;13.37;11.40;;;8.80;35.20;;;;;;10467874;28;20240;-74
2023/02/11 12:08:22;;;;;;;13.80;12.20;;;9.00;34.40;;;;;;10471524;28;20224;-75
2023/02/11 12:13:43;;;;;;;12.30;11.00;;;9.10;34.60;;;;;;10472982;28;20243;-72
2023/02/11 12:19:11;;;;;;;12.20;11.00;;;9.20;34.40;;;;;;10472428;28;20716;-74
2023/02/11 12:24:29;;;;;;;12.60;11.30;;;9.30;34.50;;;;;;10469578;28;20228;-76
2023/02/11 12:29:42;;;;;;;10.67;9.60;;;9.40;34.60;;;;;;10469919;28;20246;-74
2023/02/11 12:35:16;;;;;;;10.93;9.83;;;9.50;34.30;;;;;;10468376;28;20224;-74
2023/02/11 12:40:27;;;;;;;12.93;10.40;;;9.60;34.00;;;;;;10473274;28;20220;-73
2023/02/11 12:45:54;;;;;;;11.53;10.00;;;9.60;33.50;;;;;;10468091;28;20353;-74
2023/02/11 12:51:06;;;;;;;12.07;10.87;;;9.60;32.60;;;;;;10464850;28;20239;-72
2023/02/11 12:56:19;;;;;;;11.23;10.10;;;9.50;33.20;;;;;;10468257;28;20251;-75
2023/02/11 13:01:27;;;;;;;12.23;10.93;;;9.50;33.70;;;;;;10465498;28;20294;-75
2023/02/11 13:06:37;;;;;;;12.00;10.57;;;9.50;34.30;;;;;;10466819;28;20276;-74
2023/02/11 13:11:50;;;;;;;13.80;10.47;;;9.60;33.80;;;;;;10468092;28;20704;-73
2023/02/11 13:16:57;;;;;;;12.07;10.87;;;9.70;34.40;;;;;;10463195;28;20252;-74
2023/02/11 13:22:09;;;;;;;13.20;11.13;;;9.80;34.40;;;;;;10467231;28;20224;-75
2023/02/11 13:27:31;;;;;;;12.83;11.53;;;9.90;33.40;;;;;;10470232;28;20220;-74
2023/02/11 13:33:06;;;;;;;12.03;10.83;;;9.90;33.50;;;;;;10464187;28;20235;-73
2023/02/11 13:38:21;;;;;;;11.20;10.07;;;10.00;32.10;;;;;;10466220;28;20224;-74
2023/02/11 13:43:27;;;;;;;11.97;10.77;;;10.00;32.40;;;;;;10466701;28;20704;-74
2023/02/11 13:48:34;;;;;;;13.87;12.47;;;10.00;32.50;;;;;;10469064;28;20231;-73
2023/02/11 13:53:49;;;;;;;13.37;11.77;;;10.10;32.60;;;;;;10469541;28;20228;-72
2023/02/11 13:58:52;;;;;;;13.07;11.67;;;10.10;31.80;;;;;;10468925;28;20315;-73
2023/02/11 14:09:42;;;;;;;11.47;10.30;;;10.00;33.70;;;;;;10474455;28;20223;-74
2023/02/11 14:14:59;;;;;;;11.63;10.53;;;10.00;32.70;;;;;;10467883;28;20232;-73
2023/02/11 14:20:34;;;;;;;14.23;11.33;;;10.10;32.30;;;;;;10475526;28;20228;-74
2023/02/11 14:25:41;;;;;;;13.73;12.30;;;10.10;32.20;;;;;;10476672;28;20232;-73
2023/02/11 14:30:54;;;;;;;13.60;12.20;;;10.10;32.50;;;;;;10472108;28;20603;-70
2023/02/11 14:36:08;;;;;;;13.57;12.17;;;10.10;32.30;;;;;;10474825;28;20236;-70
2023/02/11 14:41:19;;;;;;;12.70;11.47;;;10.10;31.90;;;;;;10473546;28;20224;-70
2023/02/11 14:46:26;;;;;;;14.07;12.43;;;10.10;31.80;;;;;;10472761;28;20233;-69
2023/02/11 14:51:31;;;;;;;13.30;11.90;;;10.10;32.30;;;;;;10476607;28;20617;-70
2023/02/11 14:56:37;;;;;;;14.07;12.57;;;10.00;32.40;;;;;;10467570;28;20231;-72
2023/02/11 15:01:41;;;;;;;13.37;11.63;;;10.00;32.60;;;;;;10470833;28;20567;-73
2023/02/11 15:06:49;;;;;;;13.30;11.90;;;10.10;32.50;;;;;;10466549;28;20295;-74
2023/02/11 15:11:54;;;;;;;14.07;11.07;;;10.10;32.40;;;;;;10473536;28;20239;-70
2023/02/11 15:17:00;;;;;;;12.17;10.97;;;10.10;32.50;;;;;;10481585;28;20236;-72
2023/02/11 15:22:06;;;;;;;12.43;11.13;;;10.10;32.50;;;;;;10479989;28;20229;-72
2023/02/11 15:27:14;;;;;;;12.40;11.07;;;10.10;32.50;;;;;;10484479;28;20232;-70
2023/02/11 15:32:20;;;;;;;16.23;14.27;;;10.10;32.30;;;;;;10481024;28;20708;-71
2023/02/11 15:37:26;;;;;;;21.47;16.53;;;10.10;32.50;;;;;;10476987;28;20251;-73
2023/02/11 15:42:31;;;;;;;12.67;11.47;;;10.10;32.60;;;;;;10479034;28;20243;-71
2023/02/11 15:47:50;;;;;;;11.63;10.33;;;10.10;32.50;;;;;;10470479;28;20231;-70
2023/02/11 15:52:56;;;;;;;11.77;10.67;;;10.10;32.50;;;;;;10476943;28;20879;-71
2023/02/11 15:58:02;;;;;;;11.63;10.43;;;10.10;32.50;;;;;;10474012;28;20243;-70
2023/02/11 16:03:05;;;;;;;11.63;10.43;;;10.10;32.40;;;;;;10476468;28;20231;-71
2023/02/11 16:08:23;;;;;;;12.37;11.07;;;10.10;32.50;;;;;;10473431;28;20243;-70
2023/02/11 16:13:29;;;;;;;17.50;12.60;;;10.10;32.20;;;;;;10479291;28;20246;-71
2023/02/11 16:18:35;;;;;;;12.17;10.90;;;10.10;33.20;;;;;;10481957;28;20717;-71
2023/02/11 16:23:42;;;;;;;16.57;14.77;;;10.10;32.50;;;;;;10465968;28;20236;-73
2023/02/11 16:28:47;;;;;;;15.13;12.67;;;10.10;32.60;;;;;;10477744;28;20718;-73
2023/02/11 16:33:50;;;;;;;13.83;12.43;;;10.10;32.50;;;;;;10468388;28;20241;-73
2023/02/11 16:38:53;;;;;;;16.20;14.00;;;10.10;32.60;;;;;;10471027;28;20236;-72
2023/02/11 16:43:58;;;;;;;15.07;13.57;;;10.10;32.60;;;;;;10477639;28;20229;-73
2023/02/11 16:49:10;;;;;;;17.07;15.30;;;10.10;32.40;;;;;;10468902;28;20232;-73
2023/02/11 16:54:14;;;;;;;15.40;13.73;;;10.00;32.20;;;;;;10478733;28;20823;-73
2023/02/11 16:59:19;;;;;;;14.83;13.23;;;10.00;32.50;;;;;;10470888;28;20282;-72
2023/02/11 17:04:26;;;;;;;14.53;13.03;;;9.90;33.50;;;;;;10468277;28;20237;-73
2023/02/11 17:09:29;;;;;;;14.87;13.37;;;9.90;33.60;;;;;;10476548;28;20236;-73
2023/02/11 17:14:34;;;;;;;18.80;16.80;;;9.80;33.70;;;;;;10481282;28;20231;-73
2023/02/11 17:19:38;;;;;;;20.03;14.77;;;9.90;33.60;;;;;;10476779;28;20221;-73
2023/02/11 17:24:42;;;;;;;15.20;13.63;;;9.80;33.60;;;;;;10467393;28;20232;-73
2023/02/11 17:29:46;;;;;;;37.17;33.57;;;9.80;33.70;;;;;;10464775;28;20221;-73
2023/02/11 17:34:49;;;;;;;47.27;42.10;;;9.70;33.80;;;;;;10477874;28;20274;-73
2023/02/11 17:39:52;;;;;;;53.10;47.73;;;9.60;33.80;;;;;;10482804;28;20224;-73
2023/02/11 17:44:57;;;;;;;24.37;21.87;;;9.60;33.90;;;;;;10480427;28;20241;-73
2023/02/11 17:50:01;;;;;;;20.70;18.50;;;9.50;34.00;;;;;;10480917;28;20693;-73
2023/02/11 17:55:06;;;;;;;20.23;18.00;;;9.50;34.00;;;;;;10476847;28;20233;-73
2023/02/11 18:00:11;;;;;;;19.07;16.13;;;9.50;34.00;;;;;;10477201;28;20232;-73
2023/02/11 18:05:15;;;;;;;17.27;14.77;;;9.50;34.10;;;;;;10461941;28;20224;-73
2023/02/11 18:10:18;;;;;;;14.93;13.33;;;9.40;34.00;;;;;;10473953;28;20220;-73
2023/02/11 18:15:23;;;;;;;16.13;14.47;;;9.50;34.00;;;;;;10475405;28;21554;-74
2023/02/11 18:20:26;;;;;;;16.17;13.60;;;9.40;34.00;;;;;;10480821;28;20232;-73
2023/02/11 18:25:29;;;;;;;17.33;14.83;;;9.40;34.10;;;;;;10480039;28;20224;-73
2023/02/11 18:30:34;;;;;;;15.70;14.17;;;9.40;34.30;;;;;;10509525;22;20235;-70
2023/02/11 18:35:38;;;;;;;14.90;12.53;;;9.40;34.30;;;;;;10482142;28;20228;-71
2023/02/11 18:40:41;;;;;;;16.83;15.07;;;9.40;34.30;;;;;;10481294;28;20236;-71
2023/02/11 18:45:46;;;;;;;14.67;12.07;;;9.40;34.30;;;;;;10481724;28;20228;-72
2023/02/11 18:50:49;;;;;;;18.00;15.00;;;9.40;34.20;;;;;;10479199;28;20652;-72
2023/02/11 18:55:53;;;;;;;15.27;13.67;;;9.40;34.00;;;;;;10484465;28;20276;-70
2023/02/11 19:00:58;;;;;;;16.00;14.30;;;9.40;34.00;;;;;;10484218;28;20319;-70
2023/02/11 19:06:01;;;;;;;15.33;13.57;;;9.40;34.10;;;;;;10482828;28;20327;-70
2023/02/11 19:11:05;;;;;;;16.53;14.57;;;9.40;34.30;;;;;;10476228;28;20229;-71
2023/02/11 19:16:11;;;;;;;18.73;15.93;;;9.30;34.20;;;;;;10482559;28;20657;-72
2023/02/11 19:21:14;;;;;;;18.40;16.33;;;9.30;34.10;;;;;;10472022;28;20848;-72
2023/02/11 19:26:17;;;;;;;17.33;15.53;;;9.30;34.20;;;;;;10474754;28;20233;-72
2023/02/11 19:31:22;;;;;;;18.40;16.43;;;9.20;34.20;;;;;;10470154;28;20236;-72
2023/02/11 19:36:25;;;;;;;18.43;16.43;;;9.30;34.30;;;;;;10480417;28;20240;-72
2023/02/11 19:41:28;;;;;;;18.77;16.60;;;9.20;34.20;;;;;;10465543;28;20220;-72
2023/02/11 19:46:35;;;;;;;18.17;16.27;;;9.20;34.20;;;;;;10457382;28;20608;-72
2023/02/11 19:51:38;;;;;;;19.10;16.90;;;9.20;34.20;;;;;;10465907;28;20233;-72
2023/02/11 19:56:43;;;;;;;17.83;15.97;;;9.20;34.20;;;;;;10471926;28;20315;-72
2023/02/11 20:01:48;;;;;;;18.20;16.40;;;9.10;34.20;;;;;;10473471;28;20224;-72
2023/02/11 20:06:51;;;;;;;19.33;17.33;;;9.20;34.40;;;;;;10472582;28;20486;-72
2023/02/11 20:11:54;;;;;;;17.27;15.47;;;9.20;34.40;;;;;;10475121;28;20239;-72
2023/02/11 20:16:59;;;;;;;17.03;15.33;;;9.20;34.30;;;;;;10477853;28;20646;-72
2023/02/11 20:22:02;;;;;;;15.97;14.37;;;9.20;34.30;;;;;;10479798;28;20238;-71
2023/02/11 20:27:07;;;;;;;20.73;18.57;;;9.30;34.30;;;;;;10474546;28;20633;-73
2023/02/11 20:32:12;;;;;;;24.27;21.27;;;9.30;34.30;;;;;;10475567;28;20228;-73
2023/02/11 20:37:16;;;;;;;21.27;17.77;;;9.20;34.20;;;;;;10472728;28;20635;-73
2023/02/11 20:42:19;;;;;;;17.40;15.60;;;9.20;34.20;;;;;;10471569;28;20573;-73
2023/02/11 20:47:24;;;;;;;17.23;15.47;;;9.20;34.20;;;;;;10472714;28;20236;-73
2023/02/11 20:52:27;;;;;;;17.73;15.97;;;9.10;34.20;;;;;;10473001;28;20235;-72
2023/02/11 20:57:30;;;;;;;17.57;15.33;;;9.10;34.30;;;;;;10470620;28;20247;-72
2023/02/11 21:02:35;;;;;;;18.33;16.43;;;9.10;34.40;;;;;;10460074;28;20224;-72
2023/02/11 21:07:38;;;;;;;18.33;16.47;;;9.10;34.60;;;;;;10457431;28;20224;-71
2023/02/11 21:12:41;;;;;;;23.60;19.20;;;9.10;34.50;;;;;;10465318;28;20228;-72
2023/02/11 21:17:45;;;;;;;27.67;24.67;;;9.10;34.50;;;;;;10463510;28;20612;-73
2023/02/11 21:22:49;;;;;;;26.57;23.87;;;9.10;34.60;;;;;;10461206;28;20255;-72
2023/02/11 21:27:52;;;;;;;26.67;23.80;;;9.00;34.60;;;;;;10455665;28;20229;-72
2023/02/11 21:32:58;;;;;;;23.63;21.17;;;8.90;34.60;;;;;;10478027;28;20228;-73
2023/02/11 21:38:01;;;;;;;21.70;19.43;;;8.80;34.80;;;;;;10472846;28;20555;-72
2023/02/11 21:43:05;;;;;;;21.60;18.40;;;8.70;34.70;;;;;;10457816;28;20235;-72
2023/02/11 21:48:10;;;;;;;18.87;16.83;;;8.70;34.90;;;;;;10472271;28;20258;-72
2023/02/11 21:53:14;;;;;;;18.10;16.20;;;8.70;35.10;;;;;;10460757;28;20566;-72
2023/02/11 21:58:17;;;;;;;19.33;16.77;;;8.70;35.20;;;;;;10466618;28;20578;-72
2023/02/11 22:03:22;;;;;;;21.93;18.90;;;8.70;35.30;;;;;;10473415;28;20228;-71
2023/02/11 22:08:25;;;;;;;19.63;17.30;;;8.70;35.40;;;;;;10470571;28;20233;-71
2023/02/11 22:13:28;;;;;;;18.50;15.40;;;8.70;35.30;;;;;;10467458;28;20233;-71
2023/02/11 22:18:33;;;;;;;17.30;15.23;;;8.80;35.30;;;;;;10471003;28;20239;-71
2023/02/11 22:23:37;;;;;;;17.93;15.60;;;8.90;35.50;;;;;;10475786;28;20716;-72
2023/02/11 22:28:41;;;;;;;14.23;12.77;;;8.90;35.30;;;;;;10479388;28;20232;-71
2023/02/11 22:33:46;;;;;;;17.00;15.30;;;9.00;35.30;;;;;;10477074;28;20720;-71
2023/02/11 22:38:49;;;;;;;21.00;18.60;;;9.00;35.40;;;;;;10476984;28;20243;-71
2023/02/11 22:43:52;;;;;;;17.10;15.33;;;9.00;35.10;;;;;;10485529;28;20542;-71
2023/02/11 22:48:57;;;;;;;22.90;18.30;;;9.00;35.10;;;;;;10480630;28;20765;-71
2023/02/11 22:54:01;;;;;;;20.60;18.20;;;9.00;35.20;;;;;;10485742;28;20615;-71
2023/02/11 22:59:06;;;;;;;21.50;17.13;;;9.00;35.90;;;;;;10485713;28;20621;-71
2023/02/11 23:04:12;;;;;;;16.80;14.23;;;8.90;35.10;;;;;;10480430;28;20610;-71
2023/02/11 23:09:16;;;;;;;18.17;16.00;;;8.90;35.30;;;;;;10481494;28;20236;-72
2023/02/11 23:14:19;;;;;;;18.03;16.13;;;8.90;35.20;;;;;;10478807;28;20238;-72
2023/02/11 23:19:24;;;;;;;17.23;15.57;;;8.90;35.30;;;;;;10481732;28;20250;-72
2023/02/11 23:24:27;;;;;;;17.37;15.60;;;8.90;35.50;;;;;;10484089;28;20315;-72
2023/02/11 23:29:30;;;;;;;18.10;16.23;;;8.80;35.30;;;;;;10479841;28;20252;-72
2023/02/11 23:34:35;;;;;;;17.03;15.30;;;8.80;35.30;;;;;;10482195;28;20228;-72
2023/02/11 23:39:38;;;;;;;17.27;15.53;;;8.80;35.40;;;;;;10476526;28;20236;-72
2023/02/11 23:44:41;;;;;;;17.53;15.63;;;8.80;35.80;;;;;;10477209;28;20716;-72
2023/02/11 23:49:45;;;;;;;17.80;15.90;;;8.80;35.50;;;;;;10480488;28;20739;-73
2023/02/11 23:54:49;;;;;;;15.93;14.23;;;8.80;35.70;;;;;;10473821;28;20240;-72
2023/02/11 23:59:52;;;;;;;15.53;13.97;;;8.70;35.50;;;;;;10479751;28;20228;-72
